This is the latest recevied weather packets stored in our database for station/object KA3RQR. If no packets are shown the sender has not sent any weather packets the latest 10 day(s).
| Time | Temp. | Humidity | Pressure | Rain* | Wind** | Luminosity | Snow |
|---|---|---|---|---|---|---|---|
| 1777819828 | 10° C | 47% | 1017.3 hPa | 0 mm | - | 49 W/m² | - |
| 1777818616 | 10° C | 51% | 1017.6 hPa | 0 mm | - | 78 W/m² | - |
| 1777817404 | 9.44° C | 52% | 1017.5 hPa | 0 mm | - | 43 W/m² | - |
| 1777813162 | 7.22° C | 57% | 1017.8 hPa | 0 mm | - | 38 W/m² | - |
| 1777812556 | 7.22° C | 58% | 1017.7 hPa | 0 mm | - | 37 W/m² | - |
| 1777811351 | 6.67° C | 60% | 1017.6 hPa | 0 mm | - | 32 W/m² | - |
| 1777807717 | 5.56° C | 71% | 1017.2 hPa | 0 mm | - | 22 W/m² | - |
| 1777805897 | 4.44° C | 75% | 1016.5 hPa | 0 mm | - | 16 W/m² | - |
| 1777805292 | 3.89° C | 77% | 1016.5 hPa | 0 mm | - | 12 W/m² | - |
| 1777804384 | 3.89° C | 81% | 1016.1 hPa | 0 mm | - | 7 W/m² | - |
| 1777803778 | 3.33° C | 82% | 1015.8 hPa | 0 mm | - | 5 W/m² | - |
| 1777803171 | 3.33° C | 82% | 1016 hPa | 0 mm | - | 1 W/m² | - |
| 1777802868 | 3.89° C | 81% | 1015.5 hPa | 0 mm | - | 0 W/m² | - |
| 1777801052 | 3.89° C | 79% | 1015.5 hPa | 0 mm | - | 0 W/m² | - |
| 1777800749 | 4.44° C | 78% | 1015.3 hPa | 0 mm | - | 0 W/m² | - |
| 1777800444 | 4.44° C | 78% | 1015.4 hPa | 0 mm | - | 0 W/m² | - |
| 1777800141 | 4.44° C | 77% | 1015.3 hPa | 0 mm | - | 0 W/m² | - |
| 1777799836 | 4.44° C | 76% | 1015.2 hPa | 0 mm | - | 0 W/m² | - |
| 1777799534 | 4.44° C | 77% | 1015.2 hPa | 0 mm | - | 0 W/m² | - |
| 1777799230 | 4.44° C | 78% | 1015.4 hPa | 0 mm | - | 0 W/m² | - |
| 1777798926 | 4.44° C | 78% | 1015.3 hPa | 0 mm | - | 0 W/m² | - |
| 1777798622 | 4.44° C | 78% | 1015.3 hPa | 0 mm | - | 0 W/m² | - |
| 1777798319 | 4.44° C | 78% | 1015.2 hPa | 0 mm | - | 0 W/m² | - |
| 1777798015 | 4.44° C | 78% | 1015.2 hPa | 0 mm | - | 0 W/m² | - |
| 1777797411 | 4.44° C | 77% | 1015.1 hPa | 0 mm | - | 0 W/m² | - |
* Rain latest hour (hover to see other rain measurements)
** Current wind speed in m/s (hover to see current wind gust speed)